Troy, AL

5:20 AM CDT on August 27, 2014 (GMT -0500)
3 B Farms Goshen Al | Change Station
CLOSE
Current Station
Personal Weather Station
Location: Troy, AL
Elevation: 400 ft
Nearby Weather Stations

Elev 400 ft 31.71 °N, 86.08 °W | Updated 3 minutes ago

Clear
Clear
63.5 °F
Feels Like 63.5 °F
N
0.0
Wind Variable Wind from ENE

Today
High -- | Low -- °F
--% Chance of Precip.
Yesterday
High -- | Low -- °F
Precip. -- in
6:16 AM 7:13 PM
Waxing Crescent, 3% visible
Pressure 30.01 in
Visibility 10.0 miles
Clouds Clear
Dew Point 62 °F
Humidity 96%
Rainfall 0.00 in
Snow Depth Not available.
UV 0 out of 12
Pollen 9.10 out of 12
Air Quality Not available.
Flu Activity Not available.
METAR KTOI 270953Z AUTO 00000KT 10SM CLR 19/17 A3003 RMK AO2 SLP163 T01890172

More Conditions Fewer Conditions

Pressure 30.01 in
Visibility 10.0 miles
Clouds Clear
Dew Point 62 °F
Humidity 96%
Rainfall 0.00 in
Snow Depth Not available.
UV 0 out of 12
Pollen 9.10 out of 12
Air Quality Not available.
Flu Activity Not available.
METAR KTOI 270953Z AUTO 00000KT 10SM CLR 19/17 A3003 RMK AO2 SLP163 T01890172

More Conditions Fewer Conditions

10-Day Weather Forecast

Almanac

Astronomy

Aug. 27, 2014 Rise Set
Actual Time 6:16 AM CDT 7:13 PM CDT
Civil Twilight 5:51 AM CDT 7:38 PM CDT
Nautical Twilight 5:21 AM CDT 8:08 PM CDT
Astronomical Twilight 4:51 AM CDT 8:38 PM CDT
Moon 8:02 AM CDT 8:17 PM CDT
Length of Visible Light 13h 47m
Length of Day
12h 57m
Tomorrow will be 1m 50s shorter.
Waxing Crescent, 3% of the Moon is Illuminated
Today
Waxing Crescent
Sep 2
First Quarter
Sep 8
Full
Sep 15
Last Quarter
Sep 24
New

Today's Extremes

State Highs State Lows

Community

WunderPhotos

Upload Photos

1,747,661 photos uploaded!

Nearby

Snow Depth

Station Depth Elevation
No new snow has been reported.

Earthquake Activity

City Distance Mag. Time & Date
No recent earthquake activity has been reported nearby.
Minimum magnitude displayed is 2.5.

Coastal Water Temperatures

Place Temperature
No Stations Reporting

Nearby Weather Stations